Aérodrome :
LOGIN :

S'inscrire | Disclaimer

   EN    FR    IT 

 










Légende :    VFR   VFR Marginal   IFR   IFR Intensif   IFR Très Intensif
Visi : 
Plafond : 
>= 8 km
>= 3000ft
5 à 8 km
1000 à 3000 ft
1500m à 5 km
500 à 1000 ft
800 à 1500m
200 à 500 ft
< 800m
< 200 ft
Symboles :   Orages  Brouillard  Fortes neiges  Fortes précipitations  Vent > 20 kt
SIGMETs :   Divers  Orages  Givrage  Turbulence  Onde Orograph.  Cendres Volcan.







- Altitude de l'aérodrome : 16 ft
- Code IATA : EAS


LESO - San Sebastian Fuenterrabia

DERNIER METAR :
  • 220730Z 19002KT CAVOK 12/11 Q1004

METARs EXPIRÉS :
  • 220700Z VRB02KT CAVOK 11/10 Q1004
  • 220630Z 18003KT 140V210 CAVOK 11/10 Q1005
  • 220600Z 00000KT CAVOK 11/10 Q1005
  • 220530Z VRB02KT 9999 FEW017 11/10 Q1005
  • 220500Z 15003KT 9999 FEW017 11/10 Q1005

TAF TAF LESO
Valide du 22 à 06h jusqu'au 23 à 06h UTC


220500Z 2206/2306 VRB03KT 9999 FEW015 TX18/2215Z TN10/2206Z
BECMG 2210/2214 03010KT
BECMG 2218/2222 18010KT
Pas de NOTAMs connus pour ce terrain.
1 SIGMET publié pour la FIR Madrid (LECM) :
 
Turbulence forte
LECM SIGMET 1 VALID 220400/220800 LEVA
LECM MADRID FIR/UIR SEV TURB FCST W OF LINE N3944 W00703 - N3551 W00513 FL240/280 STNR WKN=



MET'MAP, la Météo Aéronautique d'un coup d'oeil ! - Copyright ORBIFLY Décembre 2007 - Disclaimer

ORBIFLY MET'MAP TEAM :

Programmation & Développement : Alexandra Zaïnal
Conception & Développement : Baudouin d'Aumeries
Co-Programmation & Développement : Marc-Olivier Méhu
Soutien technique & logistique : Manuel Goepfert

Contact : metmap@orbifly.com




SOURCES & CREDITS :

   NOAA